Etusivu
METAR-TAF:

METAR-TAF

Lentoasemat :

Ringkøbing-Skjern, Tanska

Leveyspiiri: 56-00N, Pituuspiiri: 008-21E, korkeus merenpinnasta: 5 m

Tämänhetkinen sää

Tämä raportti tehtiin 2 tuntia ja 4 minuuttia sitten, kello 13.50 UTC
Tuuli 10 kn lännestä/lounaasta
Lämpötila 22°C
Kosteus 83%
Ilmanpaine 1016 hPa
Näkyvyys 10 km tai enemmän
Muutamia pilviä 1500 ft:n korkeudessa
Hajanaisia pilviä 3000 ft:n korkeudessa

METAR: EKVJ 231350Z 24010KT 9999 FEW015 SCT030 22/19 Q1016

Aika: 17:54 (15:54 UTC)

Sääennuste

Tämä raportti tehtiin 4 tuntia ja 49 minuuttia sitten, kello 11.05 UTC
Ennuste voimassa 23. päivästä klo 11 UTC - 23. päivään klo 15 UTC
Tuuli 10 kn lännestä
Näkyvyys 10 km tai enemmän
Hajonneita pilviä 1000 ft:n korkeudessa
Tulossa
23. päivästä klo 11 UTC - 23. päivään klo 13 UTC
Hajanaisia pilviä 2000 ft:n korkeudessa

TAF: EKVJ 231105Z 2311/2315 26010KT 9999 BKN010 BECMG 2311/2313 SCT020

Säähavainnot ja -ennusteet yli 4000 lentoasemalta (METAR- ja TAF-raportit).

Käytössä olevat sääasemat on merkitty karttaan keltaisilla ja punaisilla pisteillä.

Aseta hiiri pisteen päälle nähdäksesi sääaseman nimen.

Klikkaa sitten nähdäksesi säähavainnot ja -ennusteet.

Kartan vaihtaminen: klikkaa mustalla rastilla varustettuja vihreitä pisteitä, niin voit zoomata sisään; viivalla varustettua vihreää pistettä, niin voit zoomata ulos tai vihreitä nuolia, niin pääset viereisille kartoille.


METAR-TAF: